Airfield :
LOGIN :

Register | Disclaimer

   EN    FR    IT 

 










Legend :    VFR   Marginal VFR   IFR   Intensive IFR   Very Intensive IFR
Visi :
Ceiling :
>= 8 km
>= 3000ft
5 to 8 km
1000 to 3000 ft
1500m to 5 km
500 to 1000 ft
800 to 1500m
200 to 500 ft
< 800m
< 200 ft
Symbols :   Thunderstorms  Fog  Heavy snow  Heavy precipitations  Wind > 20 kt
SIGMETs :     Misc.  Thunderstorms  Icing  Turbulence  Mountain Waves  Volcanic Ashes






- Airport Elevation : 226 ft
- IATA code : BEX


EGUB - RAF Benson

CURRENT METAR :
  • 150820Z 18004KT 7000 BR SCT005 BKN010 BKN023 11/10 Q1003 BECMG 9999 NSW BKN012 RMK YLO1 BECMG GRN

EXPIRED METARs :
  • 150750Z 17003KT 7000 BR FEW005 BKN009 BKN023 11/10 Q1003 BECMG 9999 NSW RMK GRN BECMG GRN
  • 150650Z 22001KT 8000 BR FEW007 OVC009 10/10 Q1003 TEMPO 5000 -RA BKN006 RMK GRN TEMPO YLO1
  • 150621Z 20005KT 9000 BR OVC008 10/10 Q1003 TEMPO 5000 -RA BKN006 RMK GRN TEMPO YLO1
  • 150550Z 19004KT 9999 OVC009 10/10 Q1003 TEMPO 5000 -RA BKN006 RMK GRN TEMPO YLO1

TAF TAF EGUB
Valid from the 15 at 06:00 until the 16 at 00:00 UTC


150558Z 1506/1524 18005KT 9999 OVC010
PROB40
TEMPO 1506/1510 5000 -RA BKN006
BECMG 1510/1513 SCT025
PROB40
TEMPO 1513/1518 6000 -SHRA SCT022
ATIS : +44 1491-837766 (x7524)



MET'MAP, your aeronautical weather chart ! - Copyright ORBIFLY December 2007 - Disclaimer

ORBIFLY MET'MAP TEAM :

Programming & Development : Alexandra Zaïnal
Concept & Development : Baudouin d'Aumeries
Co-Development & Prog : Marc-Olivier Méhu
Technical & hardware support : Manuel Goepfert

Contact : metmap@orbifly.com




SOURCES & CREDITS :

   NOAA